Time;durP1;ratioP1;P1;durP2;ratioP2;P2;SDS_P1;SDS_P2;PMS_P1;PMS_P2;Temp;Humidity;BMP_temperature;BMP_pressure;BME280_temperature;BME280_humidity;BME280_pressure;Samples;Min_cycle;Max_cycle;Signal;HPM_P1;HPM_P2
2021/09/29 00:00:07;;;;;;;10.50;3.03;;;;;;;;;;5070207;28;20017;-65
2021/09/29 00:02:33;;;;;;;13.27;3.60;;;;;;;;;;5069774;28;20349;-66
2021/09/29 00:04:58;;;;;;;6.72;2.60;;;;;;;;;;5069762;28;20060;-66
2021/09/29 00:07:23;;;;;;;7.20;2.17;;;;;;;;;;5062176;28;20048;-65
2021/09/29 00:09:48;;;;;;;10.47;3.27;;;;;;;;;;5062207;28;20285;-65
2021/09/29 00:12:14;;;;;;;10.37;2.80;;;;;;;;;;5068803;28;20259;-65
2021/09/29 00:14:39;;;;;;;16.40;3.10;;;;;;;;;;5069770;28;20374;-65
2021/09/29 00:17:04;;;;;;;13.55;3.03;;;;;;;;;;5070194;28;20028;-65
2021/09/29 00:19:29;;;;;;;15.10;2.38;;;;;;;;;;5069828;28;20063;-65
2021/09/29 00:21:54;;;;;;;10.10;2.63;;;;;;;;;;5069972;28;20063;-65
2021/09/29 00:24:20;;;;;;;6.50;2.50;;;;;;;;;;5069581;28;20686;-65
2021/09/29 00:26:45;;;;;;;8.40;2.15;;;;;;;;;;5068659;28;20020;-66
2021/09/29 00:29:10;;;;;;;8.67;2.47;;;;;;;;;;5069976;28;20107;-65
2021/09/29 00:31:37;;;;;;;9.02;2.15;;;;;;;;;;5069017;28;20285;-65
2021/09/29 00:34:21;;;;;;;8.93;2.60;;;;;;;;;;5070110;28;20416;-65
2021/09/29 00:36:47;;;;;;;10.82;2.65;;;;;;;;;;5068778;28;20344;-65
2021/09/29 00:39:13;;;;;;;13.48;2.92;;;;;;;;;;5070289;28;20476;-65
2021/09/29 00:41:39;;;;;;;12.48;2.60;;;;;;;;;;5069311;28;20452;-66
2021/09/29 00:44:04;;;;;;;8.15;2.53;;;;;;;;;;5069438;28;20016;-66
2021/09/29 00:46:29;;;;;;;9.77;2.70;;;;;;;;;;5054354;28;20024;-66
2021/09/29 00:48:55;;;;;;;8.23;3.33;;;;;;;;;;5069317;28;20039;-67
2021/09/29 00:51:20;;;;;;;12.65;2.40;;;;;;;;;;5068860;28;20020;-65
2021/09/29 00:53:48;;;;;;;8.55;2.33;;;;;;;;;;5069688;28;20456;-66
2021/09/29 00:56:13;;;;;;;10.93;2.65;;;;;;;;;;5069747;28;20027;-67
2021/09/29 00:58:38;;;;;;;12.23;3.10;;;;;;;;;;5069689;28;20376;-66
2021/09/29 01:01:03;;;;;;;10.43;2.47;;;;;;;;;;5069626;28;20380;-67
2021/09/29 01:03:29;;;;;;;6.70;2.27;;;;;;;;;;5069419;28;20044;-67
2021/09/29 01:05:58;;;;;;;13.65;2.47;;;;;;;;;;5069402;28;20274;-66
2021/09/29 01:08:31;;;;;;;12.18;2.30;;;;;;;;;;5069147;28;20020;-67
2021/09/29 01:11:01;;;;;;;7.45;2.70;;;;;;;;;;5069142;28;21390;-66
2021/09/29 01:13:29;;;;;;;8.88;2.10;;;;;;;;;;5069081;28;20025;-67
2021/09/29 01:15:57;;;;;;;9.98;3.25;;;;;;;;;;5069925;28;20025;-65
2021/09/29 01:18:22;;;;;;;9.95;2.90;;;;;;;;;;5068900;28;20039;-64
2021/09/29 01:20:50;;;;;;;7.43;2.17;;;;;;;;;;5069494;28;20485;-64
2021/09/29 01:23:25;;;;;;;10.10;2.50;;;;;;;;;;5068787;28;20028;-66
2021/09/29 01:25:53;;;;;;;10.52;2.95;;;;;;;;;;5069248;28;20086;-64
2021/09/29 01:28:19;;;;;;;12.60;2.50;;;;;;;;;;5068237;28;20035;-65
2021/09/29 01:30:45;;;;;;;15.18;3.15;;;;;;;;;;5069147;28;20074;-64
2021/09/29 01:33:11;;;;;;;15.38;2.90;;;;;;;;;;5068951;28;20021;-65
2021/09/29 01:35:36;;;;;;;9.98;2.47;;;;;;;;;;5068907;28;20059;-64
2021/09/29 01:38:01;;;;;;;14.77;2.67;;;;;;;;;;5070481;28;20387;-67
2021/09/29 01:40:26;;;;;;;7.00;2.63;;;;;;;;;;5072479;28;20024;-67
2021/09/29 01:42:52;;;;;;;21.67;2.40;;;;;;;;;;5072191;28;20127;-65
2021/09/29 01:45:17;;;;;;;8.88;2.58;;;;;;;;;;5072295;28;20037;-65
2021/09/29 01:47:42;;;;;;;13.60;2.90;;;;;;;;;;5072335;28;20154;-65
2021/09/29 01:50:09;;;;;;;8.48;2.38;;;;;;;;;;5072449;28;20278;-65
2021/09/29 01:52:36;;;;;;;12.80;2.05;;;;;;;;;;5072031;28;20040;-67
2021/09/29 01:55:01;;;;;;;8.50;2.33;;;;;;;;;;5072628;28;20365;-66
2021/09/29 01:57:27;;;;;;;8.25;2.22;;;;;;;;;;5072672;28;20024;-65
2021/09/29 01:59:52;;;;;;;7.40;1.88;;;;;;;;;;5072902;28;20365;-64
2021/09/29 02:02:17;;;;;;;6.43;2.28;;;;;;;;;;5071629;28;20187;-64
2021/09/29 02:04:46;;;;;;;6.73;2.10;;;;;;;;;;5072804;28;20054;-65
2021/09/29 02:07:11;;;;;;;7.22;2.60;;;;;;;;;;5065800;28;20259;-65
2021/09/29 02:09:37;;;;;;;5.38;2.15;;;;;;;;;;5072198;28;20012;-66
2021/09/29 02:12:02;;;;;;;10.05;4.28;;;;;;;;;;5072559;28;20549;-65
2021/09/29 02:14:28;;;;;;;11.63;2.38;;;;;;;;;;5072785;28;20029;-64
2021/09/29 02:16:54;;;;;;;5.93;2.20;;;;;;;;;;5072075;28;20025;-65
2021/09/29 02:19:19;;;;;;;7.57;2.25;;;;;;;;;;5072109;28;20048;-67
2021/09/29 02:21:45;;;;;;;6.78;2.13;;;;;;;;;;5072341;28;20063;-67
2021/09/29 02:24:11;;;;;;;8.48;2.80;;;;;;;;;;5070126;28;20496;-65
2021/09/29 02:26:36;;;;;;;23.00;3.08;;;;;;;;;;5072425;28;20017;-65
2021/09/29 02:29:02;;;;;;;7.72;2.42;;;;;;;;;;5072406;28;20031;-65
2021/09/29 02:31:27;;;;;;;8.25;2.50;;;;;;;;;;5071735;28;20028;-64
2021/09/29 02:33:52;;;;;;;14.77;2.63;;;;;;;;;;5072059;28;20380;-67
2021/09/29 02:36:18;;;;;;;12.90;3.55;;;;;;;;;;5071140;28;20518;-66
2021/09/29 02:38:43;;;;;;;13.02;2.25;;;;;;;;;;5063962;28;20013;-65
2021/09/29 02:41:10;;;;;;;9.65;2.40;;;;;;;;;;5068728;28;20039;-67
2021/09/29 02:43:35;;;;;;;10.55;2.22;;;;;;;;;;5071133;28;20032;-65
2021/09/29 02:46:02;;;;;;;9.60;2.97;;;;;;;;;;5071203;28;20025;-65
2021/09/29 02:48:27;;;;;;;4.25;1.90;;;;;;;;;;5070960;28;20146;-65
2021/09/29 02:50:52;;;;;;;8.93;2.55;;;;;;;;;;5070887;28;21206;-66
2021/09/29 02:53:17;;;;;;;13.10;2.42;;;;;;;;;;5071214;28;20012;-65
2021/09/29 02:55:42;;;;;;;8.23;2.20;;;;;;;;;;5069976;28;20020;-65
2021/09/29 02:58:09;;;;;;;6.57;2.00;;;;;;;;;;5063032;28;20029;-64
2021/09/29 03:00:35;;;;;;;16.38;2.75;;;;;;;;;;5071044;28;20271;-66
2021/09/29 03:03:00;;;;;;;10.03;2.37;;;;;;;;;;5070722;28;20036;-65
2021/09/29 03:05:25;;;;;;;15.63;2.00;;;;;;;;;;5070955;28;20369;-65
2021/09/29 03:07:50;;;;;;;12.90;2.63;;;;;;;;;;5070602;28;20274;-65
2021/09/29 03:10:15;;;;;;;6.23;1.80;;;;;;;;;;5071137;28;20375;-66
2021/09/29 03:12:40;;;;;;;13.82;2.40;;;;;;;;;;5067895;28;20328;-66
2021/09/29 03:15:06;;;;;;;4.43;2.47;;;;;;;;;;5067211;28;20024;-65
2021/09/29 03:17:31;;;;;;;8.90;1.83;;;;;;;;;;5070485;28;20028;-65
2021/09/29 03:19:56;;;;;;;4.90;1.63;;;;;;;;;;5070362;28;20048;-64
2021/09/29 03:22:23;;;;;;;6.95;2.45;;;;;;;;;;5070446;28;20312;-66
2021/09/29 03:24:48;;;;;;;16.60;2.08;;;;;;;;;;5071013;28;20047;-66
2021/09/29 03:27:13;;;;;;;12.75;3.25;;;;;;;;;;5070085;28;20056;-67
2021/09/29 03:29:38;;;;;;;11.05;2.08;;;;;;;;;;5068625;28;20020;-65
2021/09/29 03:32:03;;;;;;;12.80;2.10;;;;;;;;;;5062612;28;20029;-65
2021/09/29 03:34:29;;;;;;;6.80;1.98;;;;;;;;;;5069130;28;20273;-65
2021/09/29 03:36:54;;;;;;;9.18;1.50;;;;;;;;;;5070407;28;20017;-65
2021/09/29 03:39:19;;;;;;;8.70;2.78;;;;;;;;;;5070328;28;20013;-64
2021/09/29 03:41:44;;;;;;;6.43;1.73;;;;;;;;;;5071008;28;20023;-67
2021/09/29 03:44:10;;;;;;;11.00;2.08;;;;;;;;;;5069607;28;20029;-68
2021/09/29 03:46:35;;;;;;;6.15;1.88;;;;;;;;;;5070234;28;20028;-64
2021/09/29 03:49:02;;;;;;;4.00;1.80;;;;;;;;;;5068677;28;20388;-66
2021/09/29 03:51:27;;;;;;;14.65;1.65;;;;;;;;;;5064354;28;20028;-67
2021/09/29 03:53:52;;;;;;;4.22;2.17;;;;;;;;;;5061377;28;20453;-66
2021/09/29 03:56:18;;;;;;;9.87;2.40;;;;;;;;;;5068516;28;20016;-67
2021/09/29 03:58:43;;;;;;;6.85;1.75;;;;;;;;;;5070505;28;20724;-66
2021/09/29 04:01:08;;;;;;;9.53;2.07;;;;;;;;;;5069280;28;20090;-66
2021/09/29 04:03:33;;;;;;;10.07;2.40;;;;;;;;;;5070027;28;20378;-66
2021/09/29 04:05:58;;;;;;;7.78;2.33;;;;;;;;;;5069834;28;20028;-67
2021/09/29 04:08:24;;;;;;;4.03;1.08;;;;;;;;;;5070404;28;20018;-66
2021/09/29 04:10:49;;;;;;;10.67;2.70;;;;;;;;;;5070222;28;20036;-65
2021/09/29 04:13:14;;;;;;;8.98;1.70;;;;;;;;;;5068601;28;20358;-66
2021/09/29 04:15:39;;;;;;;10.75;2.13;;;;;;;;;;5069865;28;20096;-67
2021/09/29 04:18:04;;;;;;;3.05;1.42;;;;;;;;;;5069707;28;20059;-65
2021/09/29 04:20:30;;;;;;;12.80;2.83;;;;;;;;;;5070060;28;20035;-67
2021/09/29 04:22:55;;;;;;;10.50;3.08;;;;;;;;;;5069469;28;20037;-65
2021/09/29 04:25:21;;;;;;;12.80;2.17;;;;;;;;;;5070264;28;20032;-67
2021/09/29 04:27:46;;;;;;;6.85;2.13;;;;;;;;;;5068670;28;20036;-67
2021/09/29 04:30:14;;;;;;;12.02;1.95;;;;;;;;;;5069952;28;20432;-67
2021/09/29 04:32:39;;;;;;;10.43;2.47;;;;;;;;;;5069628;28;20376;-67
2021/09/29 04:35:05;;;;;;;11.63;2.63;;;;;;;;;;5070129;28;20021;-67
2021/09/29 04:37:30;;;;;;;3.53;2.00;;;;;;;;;;5069596;28;20479;-64
2021/09/29 04:39:55;;;;;;;5.40;1.75;;;;;;;;;;5069726;28;20020;-67
2021/09/29 04:42:20;;;;;;;5.53;2.03;;;;;;;;;;5069199;28;20039;-66
2021/09/29 04:44:45;;;;;;;5.73;2.67;;;;;;;;;;5064135;28;20409;-67
2021/09/29 04:47:12;;;;;;;7.73;2.27;;;;;;;;;;5069866;28;20357;-65
2021/09/29 04:49:37;;;;;;;8.43;2.25;;;;;;;;;;5069032;28;20388;-67
2021/09/29 04:52:02;;;;;;;7.00;2.42;;;;;;;;;;5069695;28;20099;-68
2021/09/29 04:54:27;;;;;;;9.38;2.10;;;;;;;;;;5069652;28;20024;-65
2021/09/29 04:56:53;;;;;;;10.18;2.95;;;;;;;;;;5068757;28;20016;-67
2021/09/29 04:59:18;;;;;;;11.48;2.92;;;;;;;;;;5069546;28;20016;-66
2021/09/29 05:01:43;;;;;;;8.40;2.83;;;;;;;;;;5068718;28;20028;-63
2021/09/29 05:04:08;;;;;;;10.07;2.47;;;;;;;;;;5069528;28;20043;-67
2021/09/29 05:06:34;;;;;;;5.55;2.58;;;;;;;;;;5069727;28;20016;-67
2021/09/29 05:08:59;;;;;;;5.00;2.13;;;;;;;;;;5063870;28;20039;-67
2021/09/29 05:11:28;;;;;;;5.82;2.15;;;;;;;;;;5068464;28;20099;-68
2021/09/29 05:13:55;;;;;;;8.90;3.05;;;;;;;;;;5072858;28;20033;-67
2021/09/29 05:16:20;;;;;;;10.38;2.50;;;;;;;;;;5065714;28;20016;-67
2021/09/29 05:18:45;;;;;;;8.43;2.65;;;;;;;;;;5058864;28;21704;-66
2021/09/29 05:21:10;;;;;;;10.30;2.77;;;;;;;;;;5050383;28;20032;-67
2021/09/29 05:23:35;;;;;;;8.60;2.42;;;;;;;;;;5067453;28;20281;-65
2021/09/29 05:26:01;;;;;;;11.83;2.57;;;;;;;;;;5070602;28;20496;-67
2021/09/29 05:28:27;;;;;;;7.82;3.03;;;;;;;;;;5070711;28;20267;-66
2021/09/29 05:30:53;;;;;;;16.75;2.50;;;;;;;;;;5070549;28;20032;-67
2021/09/29 05:33:18;;;;;;;12.02;3.10;;;;;;;;;;5070432;28;20430;-67
2021/09/29 05:35:43;;;;;;;9.43;2.22;;;;;;;;;;5067898;28;20036;-67
2021/09/29 05:38:08;;;;;;;8.20;2.95;;;;;;;;;;5062733;28;20025;-67
2021/09/29 05:40:33;;;;;;;6.97;1.80;;;;;;;;;;5070779;28;20035;-67
2021/09/29 05:42:59;;;;;;;6.30;1.25;;;;;;;;;;5065059;28;20029;-67
2021/09/29 05:45:24;;;;;;;5.50;1.85;;;;;;;;;;5065980;28;20028;-66
2021/09/29 05:47:49;;;;;;;7.28;1.50;;;;;;;;;;5072111;28;20167;-66
2021/09/29 05:50:14;;;;;;;4.95;2.22;;;;;;;;;;5072531;28;20108;-66
2021/09/29 05:52:40;;;;;;;14.38;3.22;;;;;;;;;;5071846;28;20488;-65
2021/09/29 05:55:05;;;;;;;6.95;2.22;;;;;;;;;;5072715;28;20113;-67
2021/09/29 05:57:31;;;;;;;2.85;1.67;;;;;;;;;;5071605;28;20032;-65
2021/09/29 05:59:56;;;;;;;5.55;2.00;;;;;;;;;;5072654;28;20032;-67
2021/09/29 06:02:21;;;;;;;4.82;1.98;;;;;;;;;;5062600;28;20354;-67
2021/09/29 06:04:47;;;;;;;9.10;2.78;;;;;;;;;;5072499;28;20477;-66
2021/09/29 06:07:15;;;;;;;1.95;1.17;;;;;;;;;;5067591;28;20550;-68
2021/09/29 06:09:40;;;;;;;8.50;1.80;;;;;;;;;;5069132;28;20411;-66
2021/09/29 06:12:06;;;;;;;7.00;2.35;;;;;;;;;;5070233;28;20023;-67
2021/09/29 06:14:32;;;;;;;10.10;1.95;;;;;;;;;;5070469;28;20536;-67
2021/09/29 06:17:00;;;;;;;9.23;1.40;;;;;;;;;;5062956;28;20111;-66
2021/09/29 06:19:26;;;;;;;9.98;2.90;;;;;;;;;;5071805;28;20021;-67
2021/09/29 06:21:51;;;;;;;5.28;1.70;;;;;;;;;;5072541;28;20047;-67
2021/09/29 06:24:16;;;;;;;3.08;1.83;;;;;;;;;;5070495;28;20056;-66
2021/09/29 06:26:42;;;;;;;9.35;2.28;;;;;;;;;;5069734;28;20052;-67
2021/09/29 06:29:07;;;;;;;9.68;2.17;;;;;;;;;;5058452;28;20031;-67
2021/09/29 06:31:32;;;;;;;8.93;2.38;;;;;;;;;;5067818;28;20104;-66
2021/09/29 06:33:58;;;;;;;4.57;1.58;;;;;;;;;;5069981;28;20416;-67
2021/09/29 06:36:23;;;;;;;5.72;2.10;;;;;;;;;;5071057;28;20028;-67
2021/09/29 06:38:48;;;;;;;8.57;2.43;;;;;;;;;;5070258;28;20046;-67
2021/09/29 06:41:13;;;;;;;6.78;2.17;;;;;;;;;;5072326;28;20263;-67
2021/09/29 06:43:39;;;;;;;10.73;2.00;;;;;;;;;;5070209;28;20048;-68
2021/09/29 06:46:04;;;;;;;11.63;1.88;;;;;;;;;;5071843;28;20032;-68
2021/09/29 06:48:29;;;;;;;7.25;1.77;;;;;;;;;;5071826;28;20029;-68
2021/09/29 06:50:54;;;;;;;7.05;1.48;;;;;;;;;;5072248;28;20063;-68
2021/09/29 06:53:21;;;;;;;15.97;3.93;;;;;;;;;;5071721;28;20103;-67
2021/09/29 06:55:47;;;;;;;5.18;2.10;;;;;;;;;;5071954;28;20259;-68
2021/09/29 06:58:12;;;;;;;7.65;2.20;;;;;;;;;;5072079;28;20021;-68
2021/09/29 07:00:37;;;;;;;12.35;2.15;;;;;;;;;;5071663;28;20428;-68
2021/09/29 07:03:03;;;;;;;15.18;3.00;;;;;;;;;;5071687;28;20461;-68
2021/09/29 07:05:28;;;;;;;6.68;2.33;;;;;;;;;;5071604;28;20026;-68
2021/09/29 07:07:53;;;;;;;16.67;3.08;;;;;;;;;;5071877;28;20062;-68
2021/09/29 07:10:19;;;;;;;10.77;2.80;;;;;;;;;;5071928;28;20123;-67
2021/09/29 07:12:44;;;;;;;13.05;2.70;;;;;;;;;;5071509;28;20289;-66
2021/09/29 07:15:11;;;;;;;8.85;2.67;;;;;;;;;;5071627;28;20065;-68
2021/09/29 07:17:36;;;;;;;14.77;3.42;;;;;;;;;;5071581;28;20012;-68
2021/09/29 07:20:08;;;;;;;15.30;3.60;;;;;;;;;;5071410;28;20093;-66
2021/09/29 07:22:33;;;;;;;7.72;1.70;;;;;;;;;;5071255;28;20263;-68
2021/09/29 07:24:58;;;;;;;14.38;3.58;;;;;;;;;;5071444;28;20069;-68
2021/09/29 07:27:23;;;;;;;8.85;2.95;;;;;;;;;;5071464;28;20020;-68
2021/09/29 07:29:49;;;;;;;13.68;2.03;;;;;;;;;;5070846;28;20456;-67
2021/09/29 07:32:14;;;;;;;11.45;3.40;;;;;;;;;;5071171;28;20062;-66
2021/09/29 07:34:39;;;;;;;7.85;3.20;;;;;;;;;;5070860;28;20012;-68
2021/09/29 07:37:04;;;;;;;6.88;2.35;;;;;;;;;;5070813;28;20091;-68
2021/09/29 07:39:29;;;;;;;3.92;1.67;;;;;;;;;;5070903;28;20383;-68
2021/09/29 07:41:55;;;;;;;8.77;3.20;;;;;;;;;;5070685;28;20059;-68
2021/09/29 07:44:20;;;;;;;12.82;2.70;;;;;;;;;;5070516;28;20275;-66
2021/09/29 07:46:47;;;;;;;22.85;4.43;;;;;;;;;;5069102;28;20118;-67
2021/09/29 07:49:12;;;;;;;7.22;2.88;;;;;;;;;;5064467;28;20096;-67
2021/09/29 07:51:38;;;;;;;4.25;1.98;;;;;;;;;;5070852;28;20099;-65
2021/09/29 07:54:03;;;;;;;11.00;4.95;;;;;;;;;;5070751;28;20091;-68
2021/09/29 07:56:29;;;;;;;6.65;2.53;;;;;;;;;;5067602;28;20009;-67
2021/09/29 07:58:54;;;;;;;8.82;3.53;;;;;;;;;;5069966;28;20020;-68
2021/09/29 08:01:19;;;;;;;7.43;3.17;;;;;;;;;;5070650;28;20031;-67
2021/09/29 08:03:45;;;;;;;8.20;4.00;;;;;;;;;;5070642;28;20029;-64
2021/09/29 08:06:10;;;;;;;10.18;3.97;;;;;;;;;;5070865;28;20385;-65
2021/09/29 08:08:36;;;;;;;4.87;2.40;;;;;;;;;;5070819;28;20024;-67
2021/09/29 08:11:01;;;;;;;10.60;2.92;;;;;;;;;;5061334;28;20283;-64
2021/09/29 08:13:26;;;;;;;7.93;3.20;;;;;;;;;;5067083;28;20097;-65
2021/09/29 08:15:51;;;;;;;6.80;3.00;;;;;;;;;;5070647;28;20489;-64
2021/09/29 08:18:17;;;;;;;12.60;3.03;;;;;;;;;;5070503;28;20239;-64
2021/09/29 08:20:43;;;;;;;13.15;3.45;;;;;;;;;;5070764;28;20021;-65
2021/09/29 08:23:20;;;;;;;12.57;5.13;;;;;;;;;;5069797;28;20412;-66
2021/09/29 08:36:09;;;;;;;12.23;4.72;;;;;;;;;;5070345;28;20412;-65
2021/09/29 08:38:38;;;;;;;16.02;4.05;;;;;;;;;;5070473;28;20047;-68
2021/09/29 08:41:19;;;;;;;12.13;4.72;;;;;;;;;;5064740;28;20044;-65
2021/09/29 08:43:50;;;;;;;12.32;4.32;;;;;;;;;;5063368;28;20020;-67
2021/09/29 08:46:22;;;;;;;12.95;3.05;;;;;;;;;;5070185;28;20028;-65
2021/09/29 08:49:00;;;;;;;3.92;1.73;;;;;;;;;;5074232;28;20033;-65
2021/09/29 09:15:50;;;;;;;6.53;3.50;;;;;;;;;;5074250;28;20028;-66
2021/09/29 09:18:16;;;;;;;9.50;3.03;;;;;;;;;;5073833;28;20472;-67
2021/09/29 09:20:46;;;;;;;10.45;3.08;;;;;;;;;;5073829;28;20036;-65
2021/09/29 09:23:12;;;;;;;4.57;2.25;;;;;;;;;;5073558;28;20738;-65
2021/09/29 09:25:38;;;;;;;3.72;1.73;;;;;;;;;;5073948;28;20107;-64
2021/09/29 09:28:04;;;;;;;9.88;3.20;;;;;;;;;;5073572;28;20060;-65
2021/09/29 09:30:31;;;;;;;8.75;3.25;;;;;;;;;;5070019;28;20057;-67
2021/09/29 09:32:57;;;;;;;7.88;3.97;;;;;;;;;;5058546;28;20024;-66
2021/09/29 09:35:24;;;;;;;3.90;2.47;;;;;;;;;;5053612;28;20047;-66
2021/09/29 09:37:57;;;;;;;13.80;3.97;;;;;;;;;;5053676;28;20480;-68
2021/09/29 09:40:23;;;;;;;5.50;1.85;;;;;;;;;;5055042;28;20046;-67
2021/09/29 09:42:56;;;;;;;6.60;2.53;;;;;;;;;;5073281;28;20464;-67
2021/09/29 09:45:34;;;;;;;9.00;4.03;;;;;;;;;;5072866;28;20033;-68
2021/09/29 09:47:59;;;;;;;9.48;3.80;;;;;;;;;;5073634;28;20565;-67
2021/09/29 09:50:26;;;;;;;10.95;4.18;;;;;;;;;;5072982;28;20099;-67
2021/09/29 09:52:51;;;;;;;10.93;4.82;;;;;;;;;;5072872;28;20141;-67
2021/09/29 09:55:20;;;;;;;18.10;5.68;;;;;;;;;;5073421;28;20404;-67
2021/09/29 09:57:51;;;;;;;6.07;2.28;;;;;;;;;;5072851;28;20020;-67
2021/09/29 10:00:19;;;;;;;12.18;3.10;;;;;;;;;;5072600;28;20020;-68
2021/09/29 10:02:46;;;;;;;13.95;3.75;;;;;;;;;;5072405;28;20126;-68
2021/09/29 10:05:12;;;;;;;13.55;5.10;;;;;;;;;;5072863;28;20024;-68
2021/09/29 10:07:38;;;;;;;7.95;3.55;;;;;;;;;;5073106;28;20021;-67
2021/09/29 10:10:09;;;;;;;12.02;3.63;;;;;;;;;;5073007;28;20027;-68
2021/09/29 10:22:49;;;;;;;7.75;1.90;;;;;;;;;;5072908;28;20023;-67
2021/09/29 10:24:09;;;;;;;20.80;3.35;;;;;;;;;;5072521;28;20024;-67
2021/09/29 10:26:34;;;;;;;8.82;2.72;;;;;;;;;;5072607;28;20426;-67
2021/09/29 10:29:04;;;;;;;7.15;2.83;;;;;;;;;;5072270;28;20017;-67
2021/09/29 10:34:46;;;;;;;4.72;2.10;;;;;;;;;;5072439;28;20082;-68
2021/09/29 10:50:59;;;;;;;3.17;1.45;;;;;;;;;;5025677;28;20119;-68
2021/09/29 11:31:19;;;;;;;4.38;0.90;;;;;;;;;;5071480;28;20017;-67
2021/09/29 11:34:08;;;;;;;3.72;1.13;;;;;;;;;;5071575;28;20396;-65
2021/09/29 12:09:30;;;;;;;4.95;2.10;;;;;;;;;;5064971;28;20031;-67
2021/09/29 12:12:10;;;;;;;2.25;0.80;;;;;;;;;;5065491;28;20080;-67
2021/09/29 12:14:35;;;;;;;5.93;1.43;;;;;;;;;;5070769;28;20039;-67
2021/09/29 12:17:00;;;;;;;1.48;0.77;;;;;;;;;;5069953;28;20035;-66
2021/09/29 12:19:36;;;;;;;4.40;1.10;;;;;;;;;;5070587;28;20020;-67
2021/09/29 12:22:06;;;;;;;3.20;1.10;;;;;;;;;;5069437;28;20304;-66
2021/09/29 12:24:42;;;;;;;3.17;0.90;;;;;;;;;;5070149;28;20154;-66
2021/09/29 12:27:08;;;;;;;2.42;0.93;;;;;;;;;;5070636;28;20392;-66
2021/09/29 12:32:18;;;;;;;3.17;0.73;;;;;;;;;;5070021;28;20032;-67
2021/09/29 12:35:34;;;;;;;1.52;0.60;;;;;;;;;;5069858;28;20402;-66
2021/09/29 12:37:51;;;;;;;4.70;1.88;;;;;;;;;;5066093;28;20086;-66
2021/09/29 12:40:17;;;;;;;3.95;0.95;;;;;;;;;;5069862;28;20378;-66
2021/09/29 12:42:42;;;;;;;3.72;1.10;;;;;;;;;;5069934;28;20024;-67
2021/09/29 12:45:08;;;;;;;3.00;0.93;;;;;;;;;;5070148;28;20028;-66
2021/09/29 12:50:00;;;;;;;6.10;1.27;;;;;;;;;;5070178;28;20025;-66
2021/09/29 12:52:28;;;;;;;7.35;1.35;;;;;;;;;;5069110;28;20824;-65
2021/09/29 12:54:55;;;;;;;5.88;1.10;;;;;;;;;;5069954;28;20025;-66
2021/09/29 12:57:21;;;;;;;3.63;1.27;;;;;;;;;;5068498;28;20140;-67
2021/09/29 12:59:46;;;;;;;6.63;1.60;;;;;;;;;;5069886;28;20445;-66
2021/09/29 13:02:11;;;;;;;5.30;2.10;;;;;;;;;;5069757;28;20508;-66
2021/09/29 13:04:36;;;;;;;3.53;1.23;;;;;;;;;;5067989;28;20279;-67
2021/09/29 13:07:01;;;;;;;4.00;1.13;;;;;;;;;;5064670;28;20626;-67
2021/09/29 13:09:27;;;;;;;3.75;1.20;;;;;;;;;;5054894;28;20258;-67
2021/09/29 13:11:52;;;;;;;6.63;1.27;;;;;;;;;;5069628;28;20028;-66
2021/09/29 13:14:18;;;;;;;6.80;1.35;;;;;;;;;;5069938;28;20020;-66
2021/09/29 13:16:43;;;;;;;10.15;1.05;;;;;;;;;;5069368;28;20121;-65
2021/09/29 13:19:18;;;;;;;3.88;0.68;;;;;;;;;;5069826;28;20098;-65
2021/09/29 13:21:52;;;;;;;4.10;1.05;;;;;;;;;;5069267;28;20031;-66
2021/09/29 13:37:22;;;;;;;9.68;1.10;;;;;;;;;;5073349;28;20020;-66
2021/09/29 13:39:47;;;;;;;6.00;0.60;;;;;;;;;;5072702;28;20020;-66
2021/09/29 13:42:14;;;;;;;4.90;1.15;;;;;;;;;;5071318;28;20040;-66
2021/09/29 13:44:39;;;;;;;4.47;0.90;;;;;;;;;;5072979;28;20108;-66
2021/09/29 13:47:04;;;;;;;6.32;1.40;;;;;;;;;;5073087;28;20111;-67
2021/09/29 13:49:30;;;;;;;6.28;1.20;;;;;;;;;;5072847;28;20103;-66
2021/09/29 13:51:57;;;;;;;5.28;1.00;;;;;;;;;;5072526;28;20040;-66
2021/09/29 13:54:24;;;;;;;3.25;1.00;;;;;;;;;;5072512;28;20012;-66
2021/09/29 13:59:30;;;;;;;8.60;1.15;;;;;;;;;;5073264;28;20027;-67
2021/09/29 14:34:11;;;;;;;5.05;1.98;;;;;;;;;;5072220;28;20091;-66
2021/09/29 14:36:37;;;;;;;3.30;1.20;;;;;;;;;;5071560;28;20481;-67
2021/09/29 14:39:03;;;;;;;4.43;0.75;;;;;;;;;;5070662;28;20024;-66
2021/09/29 14:41:28;;;;;;;4.40;1.05;;;;;;;;;;5067988;28;20032;-66
2021/09/29 14:43:54;;;;;;;4.68;1.40;;;;;;;;;;5072104;28;20025;-66
2021/09/29 14:46:19;;;;;;;3.80;0.85;;;;;;;;;;5071635;28;20036;-67
2021/09/29 14:48:44;;;;;;;4.20;1.27;;;;;;;;;;5071984;28;20030;-65
2021/09/29 14:51:10;;;;;;;5.43;1.43;;;;;;;;;;5072063;28;20380;-67
2021/09/29 14:53:36;;;;;;;6.93;1.85;;;;;;;;;;5071737;28;20342;-66
2021/09/29 14:56:01;;;;;;;5.57;1.35;;;;;;;;;;5072135;28;20015;-66
2021/09/29 14:58:27;;;;;;;6.90;2.40;;;;;;;;;;5071748;28;20017;-67
2021/09/29 15:00:53;;;;;;;9.65;2.38;;;;;;;;;;5072182;28;20020;-66
2021/09/29 15:03:18;;;;;;;11.45;2.70;;;;;;;;;;5071588;28;20028;-66
2021/09/29 15:05:43;;;;;;;6.57;1.90;;;;;;;;;;5071631;28;20025;-66
2021/09/29 15:08:08;;;;;;;5.22;1.83;;;;;;;;;;5062749;28;20033;-65
2021/09/29 15:10:33;;;;;;;11.73;2.50;;;;;;;;;;5065343;28;20024;-67
2021/09/29 15:13:02;;;;;;;7.82;2.30;;;;;;;;;;5062534;28;20021;-66
2021/09/29 15:15:31;;;;;;;5.78;2.38;;;;;;;;;;5052089;28;20062;-66
2021/09/29 15:18:01;;;;;;;12.90;3.35;;;;;;;;;;5060820;28;20052;-65
2021/09/29 15:20:51;;;;;;;10.05;2.65;;;;;;;;;;5048278;28;20446;-66
2021/09/29 15:23:36;;;;;;;6.85;1.88;;;;;;;;;;5056567;28;20017;-67
2021/09/29 15:28:46;;;;;;;4.82;2.42;;;;;;;;;;5051382;28;20108;-66
2021/09/29 15:31:23;;;;;;;8.75;2.03;;;;;;;;;;5050047;28;20060;-66
2021/09/29 15:50:28;;;;;;;16.63;3.45;;;;;;;;;;5069615;28;20114;-65
2021/09/29 15:53:12;;;;;;;15.00;1.70;;;;;;;;;;5069545;28;20016;-66
2021/09/29 15:58:24;;;;;;;4.72;1.42;;;;;;;;;;5069570;28;20058;-65
2021/09/29 16:08:36;;;;;;;4.20;1.10;;;;;;;;;;5051636;28;20025;-67
2021/09/29 16:19:11;;;;;;;7.40;1.80;;;;;;;;;;5053522;28;20690;-67
2021/09/29 16:34:59;;;;;;;3.72;0.98;;;;;;;;;;5026792;28;20044;-66
2021/09/29 16:37:25;;;;;;;5.25;1.42;;;;;;;;;;5050686;28;20043;-66
2021/09/29 16:39:50;;;;;;;7.95;1.40;;;;;;;;;;5065168;28;20032;-66
2021/09/29 16:42:17;;;;;;;4.13;1.87;;;;;;;;;;5066597;28;20404;-66
2021/09/29 16:44:43;;;;;;;4.03;1.48;;;;;;;;;;5062504;28;20318;-66
2021/09/29 16:47:08;;;;;;;7.20;1.20;;;;;;;;;;5064432;28;20052;-65
2021/09/29 16:49:36;;;;;;;6.50;1.38;;;;;;;;;;5062228;28;20458;-65
2021/09/29 16:52:10;;;;;;;6.75;1.80;;;;;;;;;;5065390;28;20499;-66
2021/09/29 16:54:35;;;;;;;5.55;1.63;;;;;;;;;;5061995;28;20044;-65
2021/09/29 16:57:06;;;;;;;3.53;1.35;;;;;;;;;;5067927;28;20058;-67
2021/09/29 16:59:44;;;;;;;10.02;1.75;;;;;;;;;;5069082;28;20021;-65
2021/09/29 17:02:12;;;;;;;5.57;1.20;;;;;;;;;;5069323;28;20089;-67
2021/09/29 17:04:37;;;;;;;5.90;1.35;;;;;;;;;;5068830;28;20044;-66
2021/09/29 17:07:02;;;;;;;8.03;1.67;;;;;;;;;;5069012;28;20040;-67
2021/09/29 17:09:28;;;;;;;9.37;2.20;;;;;;;;;;5073299;28;20794;-65
2021/09/29 17:11:53;;;;;;;5.80;1.83;;;;;;;;;;5071424;28;20291;-66
2021/09/29 17:14:18;;;;;;;5.10;2.13;;;;;;;;;;5064956;28;20255;-66
2021/09/29 17:16:43;;;;;;;20.63;9.60;;;;;;;;;;5070997;28;20028;-67
2021/09/29 17:19:08;;;;;;;31.73;17.60;;;;;;;;;;5070773;28;20020;-67
2021/09/29 17:21:36;;;;;;;41.03;19.88;;;;;;;;;;5067060;28;20306;-67
2021/09/29 17:24:01;;;;;;;39.17;24.83;;;;;;;;;;5070263;28;20054;-67
2021/09/29 17:26:26;;;;;;;27.85;15.80;;;;;;;;;;5073509;28;20547;-67
2021/09/29 17:29:02;;;;;;;11.40;6.10;;;;;;;;;;5072769;28;20089;-66
2021/09/29 17:31:45;;;;;;;9.45;3.97;;;;;;;;;;5072710;28;20026;-66
2021/09/29 17:34:30;;;;;;;6.47;2.72;;;;;;;;;;5053479;28;20032;-67
2021/09/29 17:37:06;;;;;;;3.63;0.93;;;;;;;;;;5067798;28;20099;-65
2021/09/29 17:39:50;;;;;;;3.35;1.13;;;;;;;;;;5069962;28;20021;-65
2021/09/29 17:53:31;;;;;;;7.55;1.60;;;;;;;;;;4991071;28;20033;-64
2021/09/29 17:55:56;;;;;;;7.87;1.37;;;;;;;;;;5037786;28;20401;-64
2021/09/29 17:58:22;;;;;;;10.73;1.80;;;;;;;;;;5072246;28;20273;-65
2021/09/29 18:00:49;;;;;;;8.88;2.45;;;;;;;;;;5072819;28;20312;-64
2021/09/29 18:03:40;;;;;;;8.80;1.70;;;;;;;;;;5071823;28;20477;-64
2021/09/29 18:08:33;;;;;;;8.18;0.98;;;;;;;;;;5064935;28;20090;-64
2021/09/29 18:10:58;;;;;;;4.00;1.40;;;;;;;;;;5062999;28;20465;-65
2021/09/29 18:13:24;;;;;;;2.05;1.20;;;;;;;;;;5071663;28;20473;-64
2021/09/29 18:15:50;;;;;;;7.93;2.38;;;;;;;;;;5072370;28;20029;-64
2021/09/29 18:18:15;;;;;;;8.43;1.58;;;;;;;;;;5072372;28;20043;-66
2021/09/29 18:20:40;;;;;;;12.05;1.58;;;;;;;;;;5071237;28;20643;-65
2021/09/29 18:23:06;;;;;;;10.55;2.13;;;;;;;;;;5072024;28;20017;-65
2021/09/29 18:25:35;;;;;;;6.30;2.03;;;;;;;;;;5068810;28;20116;-65
2021/09/29 18:28:00;;;;;;;7.80;1.40;;;;;;;;;;5069033;28;20027;-65
2021/09/29 18:30:26;;;;;;;7.13;1.55;;;;;;;;;;5071978;28;20020;-64
2021/09/29 18:32:53;;;;;;;6.95;1.17;;;;;;;;;;5072090;28;20070;-64
2021/09/29 18:35:22;;;;;;;6.40;1.05;;;;;;;;;;5072170;28;20025;-64
2021/09/29 18:37:47;;;;;;;5.05;0.70;;;;;;;;;;5072179;28;20074;-66
2021/09/29 18:40:16;;;;;;;9.40;1.40;;;;;;;;;;5072154;28;20020;-65
2021/09/29 18:42:42;;;;;;;3.70;0.90;;;;;;;;;;5053488;28;20266;-64
2021/09/29 18:45:07;;;;;;;3.35;0.98;;;;;;;;;;5072120;28;20020;-64